KCGF

Cuyahoga County Airport

Cleveland, Ohio, USA
METAR KCGF 151245Z 20006KT 10SM OVC120 M08/M12 A2997
Observed Flight Rules
Dec-15 @ 12:45 UTC (an hour ago) Visual Flight Rules
Wind Visibility Clouds
200° at 6 knots 10 miles
  • Overcast at 12,000' AGL
Temperatures Readings
Current -8°C / 18°F
Dewpoint -12°C / 10°F
Humidity 73%
Altimeter 29.97" Hg
Pressure 1015 hPa
Elevation 268
METAR KCGF 151245Z 20006KT 10SM OVC120 M08/M12 A2997
Observed Flight Rules
Dec-15 @ 12:45 UTC
(an hour ago)
VFR
Wind Visibility
200° at 6 knots 10 miles
Clouds
  • Overcast at 12,000' AGL
Temperature Dewpoint
-8°C / 18°F -12°C / 10°F
Humidity Altimeter Pressure
73% 29.97" Hg 1015 hPa